sensor_id;sensor_type;location;lat;lon;timestamp;P1;P2;P0
74426;PMS7003;62859;53.906;27.430;2023-09-19T00:00:47;8.7;8.7;6.7
74426;PMS7003;62859;53.906;27.430;2023-09-19T00:06:13;8.3;7.7;5.3
74426;PMS7003;62859;53.906;27.430;2023-09-19T00:11:29;9.5;8;6
74426;PMS7003;62859;53.906;27.430;2023-09-19T00:15:53;9.7;8;6
74426;PMS7003;62859;53.906;27.430;2023-09-19T00:20:47;11;8.7;5.7
74426;PMS7003;62859;53.906;27.430;2023-09-19T00:25:51;9.3;8.7;6.3
74426;PMS7003;62859;53.906;27.430;2023-09-19T00:31:29;12.3;10.8;6.5
74426;PMS7003;62859;53.906;27.430;2023-09-19T00:36:29;9;9;6
74426;PMS7003;62859;53.906;27.430;2023-09-19T00:41:13;7.3;7.3;5.3
74426;PMS7003;62859;53.906;27.430;2023-09-19T00:46:14;9.3;8.7;6
74426;PMS7003;62859;53.906;27.430;2023-09-19T00:51:05;10.8;9.5;6.3
74426;PMS7003;62859;53.906;27.430;2023-09-19T00:55:47;10.3;8.3;6
74426;PMS7003;62859;53.906;27.430;2023-09-19T01:01:27;8.3;8.3;6.3
74426;PMS7003;62859;53.906;27.430;2023-09-19T01:05:51;8.7;8.7;6.3
74426;PMS7003;62859;53.906;27.430;2023-09-19T01:11:12;10.8;9.5;6
74426;PMS7003;62859;53.906;27.430;2023-09-19T01:15:49;9.3;8.3;5.7
74426;PMS7003;62859;53.906;27.430;2023-09-19T01:21:15;11.3;9.3;6.7
74426;PMS7003;62859;53.906;27.430;2023-09-19T01:26:30;9;8;6
74426;PMS7003;62859;53.906;27.430;2023-09-19T01:31:03;10.8;9.5;6.3
74426;PMS7003;62859;53.906;27.430;2023-09-19T01:36:11;9.3;8;5.7
74426;PMS7003;62859;53.906;27.430;2023-09-19T01:41:24;9.7;9.3;7.3
74426;PMS7003;62859;53.906;27.430;2023-09-19T01:45:51;8.7;8.7;6.7
74426;PMS7003;62859;53.906;27.430;2023-09-19T01:51:31;11.5;8.8;6.5
74426;PMS7003;62859;53.906;27.430;2023-09-19T01:55:53;10;8.7;6.7
74426;PMS7003;62859;53.906;27.430;2023-09-19T02:00:47;9.3;8.3;6.3
74426;PMS7003;62859;53.906;27.430;2023-09-19T02:06:01;9.3;9;6.5
74426;PMS7003;62859;53.906;27.430;2023-09-19T02:11:09;9.7;9.3;6.3
74426;PMS7003;62859;53.906;27.430;2023-09-19T02:16:27;10.3;7.7;5.7
74426;PMS7003;62859;53.906;27.430;2023-09-19T02:21:03;9.7;8.3;6.7
74426;PMS7003;62859;53.906;27.430;2023-09-19T02:26:11;8.8;8.3;6.5
74426;PMS7003;62859;53.906;27.430;2023-09-19T02:31:03;10.3;8.7;6.3
74426;PMS7003;62859;53.906;27.430;2023-09-19T02:36:09;10.3;9.7;6.7
74426;PMS7003;62859;53.906;27.430;2023-09-19T02:41:13;9.7;9.7;7
74426;PMS7003;62859;53.906;27.430;2023-09-19T02:46:19;10;9.5;6.5
74426;PMS7003;62859;53.906;27.430;2023-09-19T02:50:49;10.3;9.3;6.7
74426;PMS7003;62859;53.906;27.430;2023-09-19T02:56:05;9.7;9.3;6.3
74426;PMS7003;62859;53.906;27.430;2023-09-19T03:01:13;8.7;8.3;6.3
74426;PMS7003;62859;53.906;27.430;2023-09-19T03:06:25;10.8;9.3;6.3
74426;PMS7003;62859;53.906;27.430;2023-09-19T03:11:27;9;8.7;6.7
74426;PMS7003;62859;53.906;27.430;2023-09-19T03:16:11;11.7;10;7.3
74426;PMS7003;62859;53.906;27.430;2023-09-19T03:21:11;10.7;9.3;6.7
74426;PMS7003;62859;53.906;27.430;2023-09-19T03:25:47;11.8;10.8;7.8
74426;PMS7003;62859;53.906;27.430;2023-09-19T03:30:59;14;11.7;8.7
74426;PMS7003;62859;53.906;27.430;2023-09-19T03:35:51;11.7;10.3;7.3
74426;PMS7003;62859;53.906;27.430;2023-09-19T03:40:47;10.7;10.3;7.3
74426;PMS7003;62859;53.906;27.430;2023-09-19T03:46:27;12.5;11.5;7.8
74426;PMS7003;62859;53.906;27.430;2023-09-19T03:50:59;11.7;10.7;7.7
74426;PMS7003;62859;53.906;27.430;2023-09-19T03:56:27;11.7;10;6.7
74426;PMS7003;62859;53.906;27.430;2023-09-19T04:01:25;12.8;11.3;8.8
74426;PMS7003;62859;53.906;27.430;2023-09-19T04:06:09;11.3;10.3;7.7
74426;PMS7003;62859;53.906;27.430;2023-09-19T04:11:05;11.7;11.3;8.7
74426;PMS7003;62859;53.906;27.430;2023-09-19T04:15:57;13.7;10;8
74426;PMS7003;62859;53.906;27.430;2023-09-19T04:21:05;12.5;10.8;8.5
74426;PMS7003;62859;53.906;27.430;2023-09-19T04:25:47;11.3;10.3;8.3
74426;PMS7003;62859;53.906;27.430;2023-09-19T04:30:47;12;11;8
74426;PMS7003;62859;53.906;27.430;2023-09-19T04:36:27;12;9.7;7.7
74426;PMS7003;62859;53.906;27.430;2023-09-19T04:41:05;12.3;11.3;8
74426;PMS7003;62859;53.906;27.430;2023-09-19T04:46:27;12.3;9.3;7
74426;PMS7003;62859;53.906;27.430;2023-09-19T04:51:27;12;11;8.3
74426;PMS7003;62859;53.906;27.430;2023-09-19T04:56:25;12.7;11.3;7.3
74426;PMS7003;62859;53.906;27.430;2023-09-19T05:01:11;12.5;10.8;8.3
74426;PMS7003;62859;53.906;27.430;2023-09-19T05:05:59;12.3;11.3;8.3
74426;PMS7003;62859;53.906;27.430;2023-09-19T05:11:01;14;12;8.7
74426;PMS7003;62859;53.906;27.430;2023-09-19T05:16:05;14.3;12.7;9
74426;PMS7003;62859;53.906;27.430;2023-09-19T05:20:47;13.8;10;8
74426;PMS7003;62859;53.906;27.430;2023-09-19T05:26:27;11.7;10.3;7.3
74426;PMS7003;62859;53.906;27.430;2023-09-19T05:30:53;13;11.3;8.3
74426;PMS7003;62859;53.906;27.430;2023-09-19T05:36:25;13.3;12;8
74426;PMS7003;62859;53.906;27.430;2023-09-19T05:41:23;11.8;11;8
74426;PMS7003;62859;53.906;27.430;2023-09-19T05:46:07;12.3;11;8
74426;PMS7003;62859;53.906;27.430;2023-09-19T05:51:09;14.3;12;8
74426;PMS7003;62859;53.906;27.430;2023-09-19T05:55:47;11;9.3;7.3
74426;PMS7003;62859;53.906;27.430;2023-09-19T06:01:09;11;9.3;7.7
74426;PMS7003;62859;53.906;27.430;2023-09-19T06:05:53;10.7;9.3;7.3
74426;PMS7003;62859;53.906;27.430;2023-09-19T06:10:59;11.8;10.8;8
74426;PMS7003;62859;53.906;27.430;2023-09-19T06:16:29;10.7;10;8
74426;PMS7003;62859;53.906;27.430;2023-09-19T06:21:01;9.7;8;7
74426;PMS7003;62859;53.906;27.430;2023-09-19T06:26:29;12;11;8
74426;PMS7003;62859;53.906;27.430;2023-09-19T06:31:27;12;10.8;7.8
74426;PMS7003;62859;53.906;27.430;2023-09-19T06:36:09;14.3;12.3;8.3
74426;PMS7003;62859;53.906;27.430;2023-09-19T06:41:13;12;11;8.3
74426;PMS7003;62859;53.906;27.430;2023-09-19T06:45:53;11.3;11;7.7
74426;PMS7003;62859;53.906;27.430;2023-09-19T06:51:11;12.3;10;7.8
74426;PMS7003;62859;53.906;27.430;2023-09-19T06:55:47;10.7;9.7;6.7
74426;PMS7003;62859;53.906;27.430;2023-09-19T07:00:47;11.3;10.3;7
74426;PMS7003;62859;53.906;27.430;2023-09-19T07:06:21;14.3;13;9.3
74426;PMS7003;62859;53.906;27.430;2023-09-19T07:11:05;14;12;8.3
74426;PMS7003;62859;53.906;27.430;2023-09-19T07:16:25;13.3;12.3;8
74426;PMS7003;62859;53.906;27.430;2023-09-19T07:21:27;13.7;11;8.3
74426;PMS7003;62859;53.906;27.430;2023-09-19T07:26:29;12.8;12;8.5
74426;PMS7003;62859;53.906;27.430;2023-09-19T07:31:27;12;10.3;8
74426;PMS7003;62859;53.906;27.430;2023-09-19T07:35:47;12.3;11.3;8
74426;PMS7003;62859;53.906;27.430;2023-09-19T07:40:47;11.3;10;7.3
74426;PMS7003;62859;53.906;27.430;2023-09-19T07:46:15;11.5;10.3;8
74426;PMS7003;62859;53.906;27.430;2023-09-19T07:50:47;12.3;11.3;7.7
74426;PMS7003;62859;53.906;27.430;2023-09-19T07:56:21;10;9.3;6.7
74426;PMS7003;62859;53.906;27.430;2023-09-19T08:01:02;13.3;10.3;7.3
74426;PMS7003;62859;53.906;27.430;2023-09-19T08:06:27;9.5;9.3;6.8
74426;PMS7003;62859;53.906;27.430;2023-09-19T08:11:19;11;9.7;6.7
74426;PMS7003;62859;53.906;27.430;2023-09-19T08:16:29;11.3;9.3;6.7
74426;PMS7003;62859;53.906;27.430;2023-09-19T08:21:29;11;9.3;6.3
74426;PMS7003;62859;53.906;27.430;2023-09-19T08:25:47;11;9;6.5
74426;PMS7003;62859;53.906;27.430;2023-09-19T08:30:53;10.7;10.3;7.3
74426;PMS7003;62859;53.906;27.430;2023-09-19T08:35:47;9.7;9;7
74426;PMS7003;62859;53.906;27.430;2023-09-19T08:40:53;11.3;11;7
74426;PMS7003;62859;53.906;27.430;2023-09-19T08:45:49;11.5;10.8;7.8
74426;PMS7003;62859;53.906;27.430;2023-09-19T08:51:02;8.7;8.7;6
74426;PMS7003;62859;53.906;27.430;2023-09-19T08:56:13;8.3;8.3;6.7
74426;PMS7003;62859;53.906;27.430;2023-09-19T09:01:07;7.8;7;5.3
74426;PMS7003;62859;53.906;27.430;2023-09-19T09:06:29;8;7;5.3
74426;PMS7003;62859;53.906;27.430;2023-09-19T09:11:29;9;7.7;5.3
74426;PMS7003;62859;53.906;27.430;2023-09-19T09:16:29;7.7;6.7;5.3
74426;PMS7003;62859;53.906;27.430;2023-09-19T09:20:47;8.3;7.5;5.5
74426;PMS7003;62859;53.906;27.430;2023-09-19T09:25:48;8.7;7.3;5.3
74426;PMS7003;62859;53.906;27.430;2023-09-19T09:30:47;9.3;8.3;6.7
74426;PMS7003;62859;53.906;27.430;2023-09-19T09:36:33;10.7;8.7;6
74426;PMS7003;62859;53.906;27.430;2023-09-19T09:41:03;7.5;6.8;5
74426;PMS7003;62859;53.906;27.430;2023-09-19T09:46:29;6;6;4.7
74426;PMS7003;62859;53.906;27.430;2023-09-19T09:51:29;8.3;8.3;6.3
74426;PMS7003;62859;53.906;27.430;2023-09-19T09:56:17;8.3;6.3;5.3
74426;PMS7003;62859;53.906;27.430;2023-09-19T10:01:01;10;7.8;6
74426;PMS7003;62859;53.906;27.430;2023-09-19T10:05:59;7.3;6;4.7
74426;PMS7003;62859;53.906;27.430;2023-09-19T10:10:47;7.3;7.3;5.7
74426;PMS7003;62859;53.906;27.430;2023-09-19T10:15:47;8.7;7;4.7
74426;PMS7003;62859;53.906;27.430;2023-09-19T10:20:47;7.5;7;5
74426;PMS7003;62859;53.906;27.430;2023-09-19T10:26:21;6.7;6;4.3
74426;PMS7003;62859;53.906;27.430;2023-09-19T10:31:17;6.7;6.7;4.7
74426;PMS7003;62859;53.906;27.430;2023-09-19T10:36:29;8;6.3;5
74426;PMS7003;62859;53.906;27.430;2023-09-19T10:41:21;8.5;6.8;5
74426;PMS7003;62859;53.906;27.430;2023-09-19T10:46:29;7.7;6;4.3
74426;PMS7003;62859;53.906;27.430;2023-09-19T10:51:30;7.3;5.7;4
74426;PMS7003;62859;53.906;27.430;2023-09-19T10:55:54;7;6;4
74426;PMS7003;62859;53.906;27.430;2023-09-19T11:00:50;5.3;5.3;4
74426;PMS7003;62859;53.906;27.430;2023-09-19T11:06:09;6.3;6.3;4.3
74426;PMS7003;62859;53.906;27.430;2023-09-19T11:10:47;7.7;7.3;5.3
74426;PMS7003;62859;53.906;27.430;2023-09-19T11:16:21;7;6;4.8
74426;PMS7003;62859;53.906;27.430;2023-09-19T11:22:12;6.3;6;5
74426;PMS7003;62859;53.906;27.430;2023-09-19T11:26:39;6;5.7;4.3
74426;PMS7003;62859;53.906;27.430;2023-09-19T11:31:41;6.3;5;4.3
74426;PMS7003;62859;53.906;27.430;2023-09-19T11:36:15;7;5.8;4.5
74426;PMS7003;62859;53.906;27.430;2023-09-19T11:41:42;8.3;7;5
74426;PMS7003;62859;53.906;27.430;2023-09-19T11:46:09;7.7;7;5.3
74426;PMS7003;62859;53.906;27.430;2023-09-19T11:50:59;7.3;7.3;5.7
74426;PMS7003;62859;53.906;27.430;2023-09-19T11:56:09;7.8;7.3;5.3
74426;PMS7003;62859;53.906;27.430;2023-09-19T12:01:07;7.7;7;5
74426;PMS7003;62859;53.906;27.430;2023-09-19T12:06:30;8;7;5
74426;PMS7003;62859;53.906;27.430;2023-09-19T12:10:47;9;6.7;4.3
74426;PMS7003;62859;53.906;27.430;2023-09-19T12:16:13;5.8;4.8;3.8
74426;PMS7003;62859;53.906;27.430;2023-09-19T12:21:22;6.3;5.7;4.3
74426;PMS7003;62859;53.906;27.430;2023-09-19T12:26:15;7.7;7;5.3
74426;PMS7003;62859;53.906;27.430;2023-09-19T12:31:27;6.3;6;4.7
74426;PMS7003;62859;53.906;27.430;2023-09-19T12:36:19;6.8;5.8;4.3
74426;PMS7003;62859;53.906;27.430;2023-09-19T12:40:47;5.3;5;4
74426;PMS7003;62859;53.906;27.430;2023-09-19T12:46:19;6.3;6.3;4.3
74426;PMS7003;62859;53.906;27.430;2023-09-19T12:51:07;7.3;6;4.5
74426;PMS7003;62859;53.906;27.430;2023-09-19T12:56:29;6;6;4
74426;PMS7003;62859;53.906;27.430;2023-09-19T13:00:47;5.3;5;4
74426;PMS7003;62859;53.906;27.430;2023-09-19T13:06:03;6.7;6;4.3
74426;PMS7003;62859;53.906;27.430;2023-09-19T13:11:10;6.3;6;5
74426;PMS7003;62859;53.906;27.430;2023-09-19T13:16:15;7;6;4.7
74426;PMS7003;62859;53.906;27.430;2023-09-19T13:21:30;7.3;6.3;4.7
74426;PMS7003;62859;53.906;27.430;2023-09-19T13:26:15;7;7;5.3
74426;PMS7003;62859;53.906;27.430;2023-09-19T13:31:00;7.3;7;5.7
74426;PMS7003;62859;53.906;27.430;2023-09-19T13:35:53;7.7;7;4.7
74426;PMS7003;62859;53.906;27.430;2023-09-19T13:41:07;6.3;6.3;5
74426;PMS7003;62859;53.906;27.430;2023-09-19T13:46:29;7;6.7;5
74426;PMS7003;62859;53.906;27.430;2023-09-19T13:51:30;9.3;8.5;6.3
74426;PMS7003;62859;53.906;27.430;2023-09-19T13:55:53;7;7;5
74426;PMS7003;62859;53.906;27.430;2023-09-19T14:01:21;7.3;6;4.7
74426;PMS7003;62859;53.906;27.430;2023-09-19T14:06:15;8.7;7.3;5
74426;PMS7003;62859;53.906;27.430;2023-09-19T14:11:29;8.5;7.5;4.5
74426;PMS7003;62859;53.906;27.430;2023-09-19T14:16:09;7;6.7;4.7
74426;PMS7003;62859;53.906;27.430;2023-09-19T14:21:01;8.7;8;6
74426;PMS7003;62859;53.906;27.430;2023-09-19T14:25:47;8.5;7;5.3
74426;PMS7003;62859;53.906;27.430;2023-09-19T14:31:05;7.7;7;5.3
74426;PMS7003;62859;53.906;27.430;2023-09-19T14:36:23;8.3;7.3;5.7
74426;PMS7003;62859;53.906;27.430;2023-09-19T14:41:07;9;8;5.7
74426;PMS7003;62859;53.906;27.430;2023-09-19T14:45:47;8.3;8;6.3
74426;PMS7003;62859;53.906;27.430;2023-09-19T14:51:19;6.3;6.3;4.7
74426;PMS7003;62859;53.906;27.430;2023-09-19T14:56:15;7.3;6.7;5
74426;PMS7003;62859;53.906;27.430;2023-09-19T15:01:29;7.7;7;5
74426;PMS7003;62859;53.906;27.430;2023-09-19T15:05:49;9.3;7;4.8
74426;PMS7003;62859;53.906;27.430;2023-09-19T15:10:49;9;8;5.7
74426;PMS7003;62859;53.906;27.430;2023-09-19T15:15:53;10;7.7;5.7
74426;PMS7003;62859;53.906;27.430;2023-09-19T15:21:05;8.7;6.7;5.3
74426;PMS7003;62859;53.906;27.430;2023-09-19T15:26:29;8.3;7;5.3
74426;PMS7003;62859;53.906;27.430;2023-09-19T15:31:17;8;7.5;6.5
74426;PMS7003;62859;53.906;27.430;2023-09-19T15:36:05;8.8;7.5;5.3
74426;PMS7003;62859;53.906;27.430;2023-09-19T15:41:11;9;8;6.7
74426;PMS7003;62859;53.906;27.430;2023-09-19T15:46:13;7;7;6
74426;PMS7003;62859;53.906;27.430;2023-09-19T15:51:25;12;10;7.3
74426;PMS7003;62859;53.906;27.430;2023-09-19T15:55:47;10.3;9.3;6.7
74426;PMS7003;62859;53.906;27.430;2023-09-19T16:00:47;10.3;8.7;6.7
74426;PMS7003;62859;53.906;27.430;2023-09-19T16:05:47;10.7;9;6
74426;PMS7003;62859;53.906;27.430;2023-09-19T16:10:55;11.8;10.5;6.8
74426;PMS7003;62859;53.906;27.430;2023-09-19T16:16:29;10.7;9;6.7
74426;PMS7003;62859;53.906;27.430;2023-09-19T16:20:49;12.3;10.7;7.7
74426;PMS7003;62859;53.906;27.430;2023-09-19T16:26:13;10.7;10.3;7.3
74426;PMS7003;62859;53.906;27.430;2023-09-19T16:31:19;9.5;8.8;6.5
74426;PMS7003;62859;53.906;27.430;2023-09-19T16:36:16;10;8.3;6.3
74426;PMS7003;62859;53.906;27.430;2023-09-19T16:41:29;9.3;8.7;6.7
74426;PMS7003;62859;53.906;27.430;2023-09-19T16:45:55;8;8;6.3
74426;PMS7003;62859;53.906;27.430;2023-09-19T16:50:53;10;8.8;7
74426;PMS7003;62859;53.906;27.430;2023-09-19T16:55:48;10.7;9.7;7
74426;PMS7003;62859;53.906;27.430;2023-09-19T17:01:07;10;10;7.7
74426;PMS7003;62859;53.906;27.430;2023-09-19T17:06:29;12.3;10;6.5
74426;PMS7003;62859;53.906;27.430;2023-09-19T17:11:19;10.3;10.3;8
74426;PMS7003;62859;53.906;27.430;2023-09-19T17:16:06;11.7;11;7.7
74426;PMS7003;62859;53.906;27.430;2023-09-19T17:21:21;12.7;11;9
74426;PMS7003;62859;53.906;27.430;2023-09-19T17:26:15;11.5;10;7.3
74426;PMS7003;62859;53.906;27.430;2023-09-19T17:31:29;12;12;7.3
74426;PMS7003;62859;53.906;27.430;2023-09-19T17:35:47;9;8.3;6.3
74426;PMS7003;62859;53.906;27.430;2023-09-19T17:40:53;11.3;10;7.3
74426;PMS7003;62859;53.906;27.430;2023-09-19T17:45:47;12.5;10.8;7.8
74426;PMS7003;62859;53.906;27.430;2023-09-19T17:50:58;13;12;8
74426;PMS7003;62859;53.906;27.430;2023-09-19T17:56:29;11;8.7;6.3
74426;PMS7003;62859;53.906;27.430;2023-09-19T18:00:56;11.7;10.7;7.3
74426;PMS7003;62859;53.906;27.430;2023-09-19T18:05:53;12.3;11.5;8.8
74426;PMS7003;62859;53.906;27.430;2023-09-19T18:11:05;13.3;10.7;7.7
74426;PMS7003;62859;53.906;27.430;2023-09-19T18:16:05;14;12.7;7.3
74426;PMS7003;62859;53.906;27.430;2023-09-19T18:21:32;10.3;9.3;7.7
74426;PMS7003;62859;53.906;27.430;2023-09-19T18:25:47;11.5;11.3;8.3
74426;PMS7003;62859;53.906;27.430;2023-09-19T18:31:01;11.7;10.3;7.7
74426;PMS7003;62859;53.906;27.430;2023-09-19T18:35:47;14;11.3;8
74426;PMS7003;62859;53.906;27.430;2023-09-19T18:40:53;11.3;9.7;7.7
74426;PMS7003;62859;53.906;27.430;2023-09-19T18:46:31;11.8;10.5;8
74426;PMS7003;62859;53.906;27.430;2023-09-19T18:51:21;11.3;11;8
74426;PMS7003;62859;53.906;27.430;2023-09-19T18:56:15;12.3;11.3;8
74426;PMS7003;62859;53.906;27.430;2023-09-19T19:01:19;11.3;10.8;7.5
74426;PMS7003;62859;53.906;27.430;2023-09-19T19:06:17;11.3;11;8
74426;PMS7003;62859;53.906;27.430;2023-09-19T19:11:06;12.3;11;7.7
74426;PMS7003;62859;53.906;27.430;2023-09-19T19:15:47;13.3;11.3;8
74426;PMS7003;62859;53.906;27.430;2023-09-19T19:21:07;13.8;12.5;7.8
74426;PMS7003;62859;53.906;27.430;2023-09-19T19:26:17;13;12;8
74426;PMS7003;62859;53.906;27.430;2023-09-19T19:31:31;10.7;10.3;7
74426;PMS7003;62859;53.906;27.430;2023-09-19T19:36:17;12;10.3;7.3
74426;PMS7003;62859;53.906;27.430;2023-09-19T19:41:13;13;10.3;7.8
74426;PMS7003;62859;53.906;27.430;2023-09-19T19:46:05;11;10;7
74426;PMS7003;62859;53.906;27.430;2023-09-19T19:51:03;15;12.7;8.7
74426;PMS7003;62859;53.906;27.430;2023-09-19T19:56:25;12;11;7.7
74426;PMS7003;62859;53.906;27.430;2023-09-19T20:01:17;11.3;10.3;8
74426;PMS7003;62859;53.906;27.430;2023-09-19T20:05:53;15;13.3;8.3
74426;PMS7003;62859;53.906;27.430;2023-09-19T20:10:59;13.7;12;9
74426;PMS7003;62859;53.906;27.430;2023-09-19T20:16:17;12.3;11.3;8
74426;PMS7003;62859;53.906;27.430;2023-09-19T20:21:31;10.8;10.5;8
74426;PMS7003;62859;53.906;27.430;2023-09-19T20:26:15;11;10.7;8.3
74426;PMS7003;62859;53.906;27.430;2023-09-19T20:30:57;12;11;8
74426;PMS7003;62859;53.906;27.430;2023-09-19T20:36:05;14.7;13;8.3
74426;PMS7003;62859;53.906;27.430;2023-09-19T20:41:01;11.3;10.3;8.5
74426;PMS7003;62859;53.906;27.430;2023-09-19T20:46:29;14.3;12.3;7.7
74426;PMS7003;62859;53.906;27.430;2023-09-19T20:50:47;15;13.7;9
74426;PMS7003;62859;53.906;27.430;2023-09-19T20:56:03;11.3;9.8;7.3
74426;PMS7003;62859;53.906;27.430;2023-09-19T21:01:01;12;10;8
74426;PMS7003;62859;53.906;27.430;2023-09-19T21:06:17;12.3;10;7.3
74426;PMS7003;62859;53.906;27.430;2023-09-19T21:11:31;12.7;11;8
74426;PMS7003;62859;53.906;27.430;2023-09-19T21:16:17;14.5;12.3;9
74426;PMS7003;62859;53.906;27.430;2023-09-19T21:21:14;12.3;11.3;8
74426;PMS7003;62859;53.906;27.430;2023-09-19T21:25:59;11;10;7.7
74426;PMS7003;62859;53.906;27.430;2023-09-19T21:31:02;13;11.7;8.3
74426;PMS7003;62859;53.906;27.430;2023-09-19T21:36:31;12.8;12;8.5
74426;PMS7003;62859;53.906;27.430;2023-09-19T21:41:05;13;11.3;8.3
74426;PMS7003;62859;53.906;27.430;2023-09-19T21:45:53;13;13;8.7
74426;PMS7003;62859;53.906;27.430;2023-09-19T21:50:59;12;11.7;9
74426;PMS7003;62859;53.906;27.430;2023-09-19T21:56:00;12.8;12;9
74426;PMS7003;62859;53.906;27.430;2023-09-19T22:01:12;15.3;14;9
74426;PMS7003;62859;53.906;27.430;2023-09-19T22:06:17;13.7;10.7;8.3
74426;PMS7003;62859;53.906;27.430;2023-09-19T22:11:15;15.7;13.3;7.7
74426;PMS7003;62859;53.906;27.430;2023-09-19T22:15:47;13.3;11.3;8.5
74426;PMS7003;62859;53.906;27.430;2023-09-19T22:21:01;15.3;12.7;9
74426;PMS7003;62859;53.906;27.430;2023-09-19T22:26:31;12.7;11.3;8
74426;PMS7003;62859;53.906;27.430;2023-09-19T22:31:18;12.3;11.7;8
74426;PMS7003;62859;53.906;27.430;2023-09-19T22:35:47;14;12;8.8
74426;PMS7003;62859;53.906;27.430;2023-09-19T22:40:48;14.3;13;9.3
74426;PMS7003;62859;53.906;27.430;2023-09-19T22:46:31;16;12.7;8.7
74426;PMS7003;62859;53.906;27.430;2023-09-19T22:51:31;15.8;13.3;9.3
74426;PMS7003;62859;53.906;27.430;2023-09-19T22:56:31;13.7;13.3;9.7
74426;PMS7003;62859;53.906;27.430;2023-09-19T23:01:31;14.3;14.3;10
74426;PMS7003;62859;53.906;27.430;2023-09-19T23:06:05;15.3;12.3;9
74426;PMS7003;62859;53.906;27.430;2023-09-19T23:10:47;14.5;13.5;9.8
74426;PMS7003;62859;53.906;27.430;2023-09-19T23:16:31;14.7;13.7;10
74426;PMS7003;62859;53.906;27.430;2023-09-19T23:20:47;17.3;14.7;10.3
74426;PMS7003;62859;53.906;27.430;2023-09-19T23:26:03;14.3;13.3;9.7
74426;PMS7003;62859;53.906;27.430;2023-09-19T23:30:53;17;14.5;10.3
74426;PMS7003;62859;53.906;27.430;2023-09-19T23:36:17;14.7;13.3;9.3
74426;PMS7003;62859;53.906;27.430;2023-09-19T23:41:29;15.7;13.7;10
74426;PMS7003;62859;53.906;27.430;2023-09-19T23:46:03;16.3;14.7;10.3
74426;PMS7003;62859;53.906;27.430;2023-09-19T23:51:15;16;14.8;9.5
74426;PMS7003;62859;53.906;27.430;2023-09-19T23:56:04;16.3;15.7;10.7
